sensor_id;sensor_type;location;lat;lon;timestamp;pressure;altitude;pressure_sealevel;temperature;humidity
13734;BME280;43298;52.560;13.508;2023-05-09T00:00:43;101854.50;;;10.00;100.00
13734;BME280;43298;52.560;13.508;2023-05-09T00:03:09;101852.88;;;9.96;100.00
13734;BME280;43298;52.560;13.508;2023-05-09T00:05:37;101850.34;;;9.94;100.00
13734;BME280;43298;52.560;13.508;2023-05-09T00:08:03;101854.84;;;9.85;100.00
13734;BME280;43298;52.560;13.508;2023-05-09T00:10:29;101855.75;;;9.84;100.00
13734;BME280;43298;52.560;13.508;2023-05-09T00:12:55;101855.59;;;9.90;100.00
13734;BME280;43298;52.560;13.508;2023-05-09T00:15:23;101854.66;;;9.94;100.00
13734;BME280;43298;52.560;13.508;2023-05-09T00:17:50;101852.19;;;9.89;100.00
13734;BME280;43298;52.560;13.508;2023-05-09T00:20:16;101849.72;;;9.82;100.00
13734;BME280;43298;52.560;13.508;2023-05-09T00:22:42;101852.41;;;9.77;100.00
13734;BME280;43298;52.560;13.508;2023-05-09T00:25:09;101846.34;;;9.80;100.00
13734;BME280;43298;52.560;13.508;2023-05-09T00:27:35;101849.81;;;9.77;100.00
13734;BME280;43298;52.560;13.508;2023-05-09T00:30:03;101851.56;;;9.77;100.00
13734;BME280;43298;52.560;13.508;2023-05-09T00:32:29;101846.41;;;9.77;100.00
13734;BME280;43298;52.560;13.508;2023-05-09T00:34:55;101844.84;;;9.70;100.00
13734;BME280;43298;52.560;13.508;2023-05-09T00:37:21;101843.19;;;9.66;100.00
13734;BME280;43298;52.560;13.508;2023-05-09T00:39:47;101852.53;;;9.73;100.00
13734;BME280;43298;52.560;13.508;2023-05-09T00:42:13;101851.88;;;9.62;100.00
13734;BME280;43298;52.560;13.508;2023-05-09T00:44:39;101857.09;;;9.60;100.00
13734;BME280;43298;52.560;13.508;2023-05-09T00:47:06;101852.00;;;9.56;100.00
13734;BME280;43298;52.560;13.508;2023-05-09T00:49:32;101846.94;;;9.50;100.00
13734;BME280;43298;52.560;13.508;2023-05-09T00:51:58;101847.78;;;9.52;100.00
13734;BME280;43298;52.560;13.508;2023-05-09T00:54:24;101845.97;;;9.55;100.00
13734;BME280;43298;52.560;13.508;2023-05-09T00:56:51;101847.78;;;9.52;100.00
13734;BME280;43298;52.560;13.508;2023-05-09T00:59:17;101838.44;;;9.46;100.00
13734;BME280;43298;52.560;13.508;2023-05-09T01:01:44;101837.63;;;9.43;100.00
13734;BME280;43298;52.560;13.508;2023-05-09T01:04:11;101841.81;;;9.48;100.00
13734;BME280;43298;52.560;13.508;2023-05-09T01:10:26;101826.66;;;9.32;100.00
13734;BME280;43298;52.560;13.508;2023-05-09T01:13:00;101825.06;;;9.24;100.00
13734;BME280;43298;52.560;13.508;2023-05-09T01:15:53;101825.91;;;9.27;100.00
13734;BME280;43298;52.560;13.508;2023-05-09T01:18:32;101819.19;;;9.16;100.00
13734;BME280;43298;52.560;13.508;2023-05-09T01:21:09;101820.94;;;9.14;100.00
13734;BME280;43298;52.560;13.508;2023-05-09T01:30:02;101821.78;;;9.16;100.00
13734;BME280;43298;52.560;13.508;2023-05-09T01:32:31;101814.78;;;9.21;100.00
13734;BME280;43298;52.560;13.508;2023-05-09T01:35:02;101814.94;;;9.15;100.00
13734;BME280;43298;52.560;13.508;2023-05-09T01:37:35;101814.03;;;9.16;100.00
13734;BME280;43298;52.560;13.508;2023-05-09T01:40:15;101809.00;;;9.09;100.00
13734;BME280;43298;52.560;13.508;2023-05-09T01:42:55;101807.31;;;9.08;100.00
13734;BME280;43298;52.560;13.508;2023-05-09T01:45:23;101809.09;;;9.04;100.00
13734;BME280;43298;52.560;13.508;2023-05-09T01:47:50;101809.69;;;9.18;100.00
13734;BME280;43298;52.560;13.508;2023-05-09T01:50:17;101813.34;;;9.08;100.00
13734;BME280;43298;52.560;13.508;2023-05-09T01:52:47;101805.47;;;9.14;100.00
13734;BME280;43298;52.560;13.508;2023-05-09T01:55:16;101805.59;;;9.08;100.00
13734;BME280;43298;52.560;13.508;2023-05-09T01:57:43;101805.66;;;9.05;100.00
13734;BME280;43298;52.560;13.508;2023-05-09T02:00:10;101802.22;;;9.03;100.00
13734;BME280;43298;52.560;13.508;2023-05-09T02:02:38;101803.06;;;9.05;100.00
13734;BME280;43298;52.560;13.508;2023-05-09T02:05:05;101803.06;;;9.07;100.00
13734;BME280;43298;52.560;13.508;2023-05-09T02:07:34;101804.81;;;9.03;100.00
13734;BME280;43298;52.560;13.508;2023-05-09T02:10:02;101807.47;;;8.99;100.00
13734;BME280;43298;52.560;13.508;2023-05-09T02:12:28;101802.47;;;8.91;100.00
13734;BME280;43298;52.560;13.508;2023-05-09T02:14:53;101801.56;;;8.94;100.00
13734;BME280;43298;52.560;13.508;2023-05-09T02:17:19;101800.78;;;8.90;100.00
13734;BME280;43298;52.560;13.508;2023-05-09T02:19:46;101794.84;;;8.85;100.00
13734;BME280;43298;52.560;13.508;2023-05-09T02:22:12;101802.41;;;8.94;100.00
13734;BME280;43298;52.560;13.508;2023-05-09T02:24:41;101791.13;;;9.01;100.00
13734;BME280;43298;52.560;13.508;2023-05-09T02:27:08;101803.69;;;9.18;100.00
13734;BME280;43298;52.560;13.508;2023-05-09T02:29:46;101803.66;;;9.19;100.00
13734;BME280;43298;52.560;13.508;2023-05-09T02:32:18;101806.31;;;9.16;100.00
13734;BME280;43298;52.560;13.508;2023-05-09T02:34:46;101805.38;;;9.19;100.00
13734;BME280;43298;52.560;13.508;2023-05-09T02:37:13;101803.88;;;9.07;100.00
13734;BME280;43298;52.560;13.508;2023-05-09T02:39:40;101804.78;;;9.06;100.00
13734;BME280;43298;52.560;13.508;2023-05-09T02:42:09;101811.56;;;9.10;100.00
13734;BME280;43298;52.560;13.508;2023-05-09T02:44:35;101807.38;;;9.05;100.00
13734;BME280;43298;52.560;13.508;2023-05-09T02:47:02;101810.75;;;9.10;100.00
13734;BME280;43298;52.560;13.508;2023-05-09T02:49:28;101802.06;;;9.14;100.00
13734;BME280;43298;52.560;13.508;2023-05-09T02:51:54;101797.88;;;9.08;100.00
13734;BME280;43298;52.560;13.508;2023-05-09T02:54:20;101804.75;;;9.08;100.00
13734;BME280;43298;52.560;13.508;2023-05-09T02:56:46;101804.88;;;9.00;100.00
13734;BME280;43298;52.560;13.508;2023-05-09T02:59:12;101800.50;;;9.05;100.00
13734;BME280;43298;52.560;13.508;2023-05-09T03:01:38;101807.59;;;8.93;100.00
13734;BME280;43298;52.560;13.508;2023-05-09T03:04:04;101808.47;;;8.92;100.00
13734;BME280;43298;52.560;13.508;2023-05-09T03:06:30;101793.03;;;8.90;100.00
13734;BME280;43298;52.560;13.508;2023-05-09T03:08:55;101801.84;;;8.79;100.00
13734;BME280;43298;52.560;13.508;2023-05-09T03:11:22;101792.31;;;8.81;100.00
13734;BME280;43298;52.560;13.508;2023-05-09T03:13:48;101795.81;;;8.78;100.00
13734;BME280;43298;52.560;13.508;2023-05-09T03:16:16;101798.66;;;8.63;100.00
13734;BME280;43298;52.560;13.508;2023-05-09T03:18:42;101792.03;;;8.47;100.00
13734;BME280;43298;52.560;13.508;2023-05-09T03:21:08;101790.44;;;8.40;100.00
13734;BME280;43298;52.560;13.508;2023-05-09T03:23:34;101796.50;;;8.38;100.00
13734;BME280;43298;52.560;13.508;2023-05-09T03:26:00;101792.41;;;8.26;100.00
13734;BME280;43298;52.560;13.508;2023-05-09T03:28:27;101789.13;;;8.14;100.00
13734;BME280;43298;52.560;13.508;2023-05-09T03:30:53;101786.63;;;8.08;100.00
13734;BME280;43298;52.560;13.508;2023-05-09T03:33:19;101787.66;;;7.96;100.00
13734;BME280;43298;52.560;13.508;2023-05-09T03:35:45;101783.53;;;7.83;100.00
13734;BME280;43298;52.560;13.508;2023-05-09T03:38:11;101782.75;;;7.78;100.00
13734;BME280;43298;52.560;13.508;2023-05-09T03:40:37;101787.06;;;7.76;100.00
13734;BME280;43298;52.560;13.508;2023-05-09T03:43:03;101792.25;;;7.75;100.00
13734;BME280;43298;52.560;13.508;2023-05-09T03:45:29;101804.34;;;7.67;100.00
13734;BME280;43298;52.560;13.508;2023-05-09T03:47:54;101798.44;;;7.60;100.00
13734;BME280;43298;52.560;13.508;2023-05-09T03:50:21;101791.69;;;7.52;100.00
13734;BME280;43298;52.560;13.508;2023-05-09T03:52:46;101790.94;;;7.44;100.00
13734;BME280;43298;52.560;13.508;2023-05-09T03:55:12;101785.88;;;7.36;100.00
13734;BME280;43298;52.560;13.508;2023-05-09T03:57:38;101788.44;;;7.38;100.00
13734;BME280;43298;52.560;13.508;2023-05-09T04:00:05;101792.81;;;7.30;100.00
13734;BME280;43298;52.560;13.508;2023-05-09T04:02:33;101792.75;;;7.36;100.00
13734;BME280;43298;52.560;13.508;2023-05-09T04:04:59;101791.00;;;7.38;100.00
13734;BME280;43298;52.560;13.508;2023-05-09T04:07:25;101789.28;;;7.40;100.00
13734;BME280;43298;52.560;13.508;2023-05-09T04:09:54;101788.38;;;7.42;100.00
13734;BME280;43298;52.560;13.508;2023-05-09T04:12:23;101786.69;;;7.40;100.00
13734;BME280;43298;52.560;13.508;2023-05-09T04:14:49;101786.63;;;7.44;100.00
13734;BME280;43298;52.560;13.508;2023-05-09T04:17:17;101778.75;;;7.58;100.00
13734;BME280;43298;52.560;13.508;2023-05-09T04:19:43;101781.31;;;7.59;100.00
13734;BME280;43298;52.560;13.508;2023-05-09T04:22:08;101782.00;;;7.72;100.00
13734;BME280;43298;52.560;13.508;2023-05-09T04:24:34;101781.78;;;7.87;100.00
13734;BME280;43298;52.560;13.508;2023-05-09T04:27:00;101781.56;;;8.02;100.00
13734;BME280;43298;52.560;13.508;2023-05-09T04:29:26;101782.28;;;8.11;100.00
13734;BME280;43298;52.560;13.508;2023-05-09T04:31:52;101780.50;;;8.16;100.00
13734;BME280;43298;52.560;13.508;2023-05-09T04:34:18;101784.59;;;8.29;100.00
13734;BME280;43298;52.560;13.508;2023-05-09T04:36:44;101782.66;;;8.43;100.00
13734;BME280;43298;52.560;13.508;2023-05-09T04:39:10;101776.53;;;8.50;100.00
13734;BME280;43298;52.560;13.508;2023-05-09T04:41:37;101784.09;;;8.61;100.00
13734;BME280;43298;52.560;13.508;2023-05-09T04:44:03;101770.25;;;8.66;100.00
13734;BME280;43298;52.560;13.508;2023-05-09T04:46:29;101773.63;;;8.70;100.00
13734;BME280;43298;52.560;13.508;2023-05-09T04:48:55;101767.53;;;8.72;100.00
13734;BME280;43298;52.560;13.508;2023-05-09T04:51:22;101769.19;;;8.78;100.00
13734;BME280;43298;52.560;13.508;2023-05-09T04:53:47;101776.72;;;8.88;100.00
13734;BME280;43298;52.560;13.508;2023-05-09T04:56:14;101780.03;;;8.95;100.00
13734;BME280;43298;52.560;13.508;2023-05-09T04:58:40;101776.41;;;9.05;100.00
13734;BME280;43298;52.560;13.508;2023-05-09T05:01:06;101782.28;;;9.13;100.00
13734;BME280;43298;52.560;13.508;2023-05-09T05:03:32;101777.84;;;9.21;100.00
13734;BME280;43298;52.560;13.508;2023-05-09T05:05:58;101769.06;;;9.30;100.00
13734;BME280;43298;52.560;13.508;2023-05-09T05:08:24;101774.88;;;9.39;100.00
13734;BME280;43298;52.560;13.508;2023-05-09T05:10:50;101764.41;;;9.45;100.00
13734;BME280;43298;52.560;13.508;2023-05-09T05:13:16;101770.19;;;9.58;100.00
13734;BME280;43298;52.560;13.508;2023-05-09T05:15:42;101760.47;;;9.69;100.00
13734;BME280;43298;52.560;13.508;2023-05-09T05:18:08;101759.66;;;9.67;100.00
13734;BME280;43298;52.560;13.508;2023-05-09T05:20:34;101762.00;;;9.77;100.00
13734;BME280;43298;52.560;13.508;2023-05-09T05:23:00;101766.28;;;9.80;100.00
13734;BME280;43298;52.560;13.508;2023-05-09T05:25:26;101776.28;;;9.93;100.00
13734;BME280;43298;52.560;13.508;2023-05-09T05:27:52;101765.09;;;9.93;100.00
13734;BME280;43298;52.560;13.508;2023-05-09T05:30:18;101760.56;;;10.02;100.00
13734;BME280;43298;52.560;13.508;2023-05-09T05:32:45;101758.50;;;10.18;100.00
13734;BME280;43298;52.560;13.508;2023-05-09T05:35:14;101771.34;;;10.22;100.00
13734;BME280;43298;52.560;13.508;2023-05-09T05:37:40;101764.06;;;10.38;100.00
13734;BME280;43298;52.560;13.508;2023-05-09T05:40:07;101769.69;;;10.55;100.00
13734;BME280;43298;52.560;13.508;2023-05-09T05:42:33;101752.16;;;10.66;100.00
13734;BME280;43298;52.560;13.508;2023-05-09T05:44:59;101747.69;;;10.71;100.00
13734;BME280;43298;52.560;13.508;2023-05-09T05:47:33;101753.75;;;10.70;100.00
13734;BME280;43298;52.560;13.508;2023-05-09T05:50:04;101743.88;;;10.85;100.00
13734;BME280;43298;52.560;13.508;2023-05-09T05:52:37;101747.25;;;11.18;100.00
13734;BME280;43298;52.560;13.508;2023-05-09T05:55:04;101742.75;;;11.26;100.00
13734;BME280;43298;52.560;13.508;2023-05-09T05:57:31;101730.63;;;11.26;100.00
13734;BME280;43298;52.560;13.508;2023-05-09T05:59:57;101734.34;;;11.47;100.00
13734;BME280;43298;52.560;13.508;2023-05-09T06:02:26;101736.53;;;11.62;99.10
13734;BME280;43298;52.560;13.508;2023-05-09T06:04:52;101731.41;;;11.86;97.44
13734;BME280;43298;52.560;13.508;2023-05-09T06:07:18;101727.00;;;12.42;94.49
13734;BME280;43298;52.560;13.508;2023-05-09T06:09:44;101714.22;;;13.11;91.23
13734;BME280;43298;52.560;13.508;2023-05-09T06:12:10;101716.66;;;13.60;87.61
13734;BME280;43298;52.560;13.508;2023-05-09T06:14:40;101715.38;;;13.93;83.60
13734;BME280;43298;52.560;13.508;2023-05-09T06:17:07;101711.63;;;14.42;80.46
13734;BME280;43298;52.560;13.508;2023-05-09T06:19:33;101711.22;;;14.51;78.50
13734;BME280;43298;52.560;13.508;2023-05-09T06:21:58;101710.25;;;14.33;78.15
13734;BME280;43298;52.560;13.508;2023-05-09T06:24:24;101708.81;;;14.05;78.45
13734;BME280;43298;52.560;13.508;2023-05-09T06:26:50;101704.88;;;14.38;78.80
13734;BME280;43298;52.560;13.508;2023-05-09T06:29:16;101693.75;;;14.54;78.36
13734;BME280;43298;52.560;13.508;2023-05-09T06:31:42;101696.53;;;14.70;77.54
13734;BME280;43298;52.560;13.508;2023-05-09T06:34:07;101694.66;;;15.12;74.73
13734;BME280;43298;52.560;13.508;2023-05-09T06:36:34;101684.63;;;15.03;75.05
13734;BME280;43298;52.560;13.508;2023-05-09T06:39:00;101684.78;;;15.19;75.02
13734;BME280;43298;52.560;13.508;2023-05-09T06:41:26;101680.25;;;14.85;73.74
13734;BME280;43298;52.560;13.508;2023-05-09T06:43:52;101683.16;;;14.77;74.30
13734;BME280;43298;52.560;13.508;2023-05-09T06:46:18;101686.88;;;14.92;73.38
13734;BME280;43298;52.560;13.508;2023-05-09T06:48:44;101667.03;;;14.69;73.57
13734;BME280;43298;52.560;13.508;2023-05-09T06:51:10;101669.59;;;14.71;74.52
13734;BME280;43298;52.560;13.508;2023-05-09T06:53:36;101675.34;;;14.97;73.05
13734;BME280;43298;52.560;13.508;2023-05-09T06:56:03;101667.53;;;14.77;73.31
13734;BME280;43298;52.560;13.508;2023-05-09T06:58:28;101668.38;;;14.98;72.51
13734;BME280;43298;52.560;13.508;2023-05-09T07:00:54;101660.41;;;15.20;73.07
13734;BME280;43298;52.560;13.508;2023-05-09T07:03:20;101664.41;;;15.08;72.50
13734;BME280;43298;52.560;13.508;2023-05-09T07:05:46;101652.00;;;14.76;71.33
13734;BME280;43298;52.560;13.508;2023-05-09T07:08:12;101646.63;;;15.18;71.12
13734;BME280;43298;52.560;13.508;2023-05-09T07:10:38;101636.69;;;15.26;72.01
13734;BME280;43298;52.560;13.508;2023-05-09T08:23:05;101533.84;;;17.59;56.37
13734;BME280;43298;52.560;13.508;2023-05-09T08:25:31;101547.22;;;17.39;55.25
13734;BME280;43298;52.560;13.508;2023-05-09T08:27:57;101546.16;;;17.12;55.11
13734;BME280;43298;52.560;13.508;2023-05-09T08:30:23;101533.34;;;16.92;55.32
13734;BME280;43298;52.560;13.508;2023-05-09T08:32:49;101529.94;;;17.96;55.37
13734;BME280;43298;52.560;13.508;2023-05-09T08:35:15;101528.56;;;18.04;55.61
13734;BME280;43298;52.560;13.508;2023-05-09T08:37:41;101523.03;;;17.95;53.94
13734;BME280;43298;52.560;13.508;2023-05-09T08:40:07;101530.41;;;17.58;54.65
13734;BME280;43298;52.560;13.508;2023-05-09T08:42:36;101534.94;;;17.70;54.79
13734;BME280;43298;52.560;13.508;2023-05-09T08:45:09;101530.81;;;18.10;54.83
13734;BME280;43298;52.560;13.508;2023-05-09T08:47:42;101529.59;;;18.02;54.60
13734;BME280;43298;52.560;13.508;2023-05-09T08:50:12;101525.28;;;18.29;55.31
13734;BME280;43298;52.560;13.508;2023-05-09T08:52:39;101527.84;;;18.44;54.25
13734;BME280;43298;52.560;13.508;2023-05-09T08:55:06;101516.50;;;18.16;54.39
13734;BME280;43298;52.560;13.508;2023-05-09T08:57:32;101524.16;;;18.05;54.51
13734;BME280;43298;52.560;13.508;2023-05-09T09:00:00;101519.91;;;17.74;54.14
13734;BME280;43298;52.560;13.508;2023-05-09T09:02:26;101515.94;;;18.25;54.46
13734;BME280;43298;52.560;13.508;2023-05-09T09:04:53;101510.47;;;18.43;54.00
13734;BME280;43298;52.560;13.508;2023-05-09T09:07:20;101514.00;;;18.70;53.88
13734;BME280;43298;52.560;13.508;2023-05-09T09:09:48;101510.47;;;18.98;54.11
13734;BME280;43298;52.560;13.508;2023-05-09T09:12:16;101517.47;;;19.50;54.15
13734;BME280;43298;52.560;13.508;2023-05-09T09:14:52;101513.91;;;18.98;53.58
13734;BME280;43298;52.560;13.508;2023-05-09T09:17:22;101508.19;;;18.65;54.11
13734;BME280;43298;52.560;13.508;2023-05-09T09:19:50;101495.66;;;18.70;52.23
13734;BME280;43298;52.560;13.508;2023-05-09T09:22:18;101497.81;;;18.90;53.82
13734;BME280;43298;52.560;13.508;2023-05-09T09:24:45;101497.34;;;19.51;52.47
13734;BME280;43298;52.560;13.508;2023-05-09T09:27:14;101501.69;;;20.02;52.71
13734;BME280;43298;52.560;13.508;2023-05-09T09:29:39;101498.28;;;19.23;51.10
13734;BME280;43298;52.560;13.508;2023-05-09T09:32:06;101506.66;;;19.16;51.21
13734;BME280;43298;52.560;13.508;2023-05-09T09:34:32;101488.88;;;19.07;50.96
13734;BME280;43298;52.560;13.508;2023-05-09T09:36:58;101496.19;;;19.55;50.50
13734;BME280;43298;52.560;13.508;2023-05-09T09:39:24;101490.47;;;19.09;50.59
13734;BME280;43298;52.560;13.508;2023-05-09T09:41:50;101483.69;;;19.58;50.79
13734;BME280;43298;52.560;13.508;2023-05-09T09:44:20;101482.91;;;19.83;49.83
13734;BME280;43298;52.560;13.508;2023-05-09T09:46:54;101471.97;;;19.76;50.26
13734;BME280;43298;52.560;13.508;2023-05-09T09:49:25;101473.03;;;20.11;51.62
13734;BME280;43298;52.560;13.508;2023-05-09T09:51:57;101470.47;;;20.10;50.37
13734;BME280;43298;52.560;13.508;2023-05-09T09:54:27;101458.97;;;20.25;50.55
13734;BME280;43298;52.560;13.508;2023-05-09T09:56:53;101466.09;;;20.35;49.31
13734;BME280;43298;52.560;13.508;2023-05-09T09:59:25;101453.91;;;20.71;49.64
13734;BME280;43298;52.560;13.508;2023-05-09T10:02:02;101454.78;;;20.46;48.25
13734;BME280;43298;52.560;13.508;2023-05-09T10:04:34;101448.44;;;20.74;47.92
13734;BME280;43298;52.560;13.508;2023-05-09T10:07:06;101438.56;;;20.03;47.49
13734;BME280;43298;52.560;13.508;2023-05-09T10:09:34;101447.59;;;20.24;46.12
13734;BME280;43298;52.560;13.508;2023-05-09T10:12:04;101434.19;;;20.52;45.52
13734;BME280;43298;52.560;13.508;2023-05-09T10:14:33;101434.38;;;20.86;45.19
13734;BME280;43298;52.560;13.508;2023-05-09T10:17:02;101423.97;;;21.42;45.04
13734;BME280;43298;52.560;13.508;2023-05-09T10:19:29;101425.69;;;21.09;42.89
13734;BME280;43298;52.560;13.508;2023-05-09T10:22:10;101427.81;;;20.44;43.91
13734;BME280;43298;52.560;13.508;2023-05-09T10:24:46;101424.91;;;20.23;43.60
13734;BME280;43298;52.560;13.508;2023-05-09T10:27:13;101417.88;;;20.11;45.11
13734;BME280;43298;52.560;13.508;2023-05-09T10:30:01;101419.84;;;20.69;44.94
13734;BME280;43298;52.560;13.508;2023-05-09T10:35:13;101419.09;;;20.67;44.51
13734;BME280;43298;52.560;13.508;2023-05-09T10:37:43;101400.94;;;21.11;43.96
13734;BME280;43298;52.560;13.508;2023-05-09T10:40:10;101411.41;;;21.35;43.67
13734;BME280;43298;52.560;13.508;2023-05-09T10:42:43;101406.78;;;21.15;43.52
13734;BME280;43298;52.560;13.508;2023-05-09T10:45:11;101399.94;;;21.58;43.33
13734;BME280;43298;52.560;13.508;2023-05-09T10:47:39;101401.75;;;21.57;42.72
13734;BME280;43298;52.560;13.508;2023-05-09T10:50:11;101408.88;;;21.33;42.00
13734;BME280;43298;52.560;13.508;2023-05-09T10:53:09;101403.66;;;21.55;43.52
13734;BME280;43298;52.560;13.508;2023-05-09T10:58:19;101389.34;;;20.90;43.98
13734;BME280;43298;52.560;13.508;2023-05-09T11:00:50;101385.03;;;21.13;43.34
13734;BME280;43298;52.560;13.508;2023-05-09T11:03:16;101371.03;;;20.89;42.78
13734;BME280;43298;52.560;13.508;2023-05-09T11:05:51;101365.16;;;21.98;44.52
13734;BME280;43298;52.560;13.508;2023-05-09T11:08:28;101379.88;;;22.23;41.93
13734;BME280;43298;52.560;13.508;2023-05-09T11:11:03;101366.50;;;21.82;41.74
13734;BME280;43298;52.560;13.508;2023-05-09T11:13:33;101363.63;;;21.74;41.89
13734;BME280;43298;52.560;13.508;2023-05-09T11:18:28;101364.56;;;22.06;43.50
13734;BME280;43298;52.560;13.508;2023-05-09T11:20:55;101353.97;;;21.40;42.99
13734;BME280;43298;52.560;13.508;2023-05-09T11:23:25;101343.84;;;21.57;42.23
13734;BME280;43298;52.560;13.508;2023-05-09T11:25:51;101340.00;;;21.39;43.09
13734;BME280;43298;52.560;13.508;2023-05-09T11:28:30;101334.19;;;21.80;43.37
13734;BME280;43298;52.560;13.508;2023-05-09T11:31:18;101331.41;;;21.81;42.60
13734;BME280;43298;52.560;13.508;2023-05-09T11:33:47;101339.69;;;21.77;42.48
13734;BME280;43298;52.560;13.508;2023-05-09T11:39:05;101323.81;;;22.74;42.93
13734;BME280;43298;52.560;13.508;2023-05-09T11:41:42;101312.16;;;21.48;41.28
13734;BME280;43298;52.560;13.508;2023-05-09T11:44:18;101302.09;;;22.39;41.20
13734;BME280;43298;52.560;13.508;2023-05-09T11:46:46;101304.38;;;22.44;41.63
13734;BME280;43298;52.560;13.508;2023-05-09T11:49:13;101310.44;;;21.47;39.41
13734;BME280;43298;52.560;13.508;2023-05-09T11:51:39;101294.66;;;21.25;39.87
13734;BME280;43298;52.560;13.508;2023-05-09T11:54:07;101290.09;;;22.04;40.22
13734;BME280;43298;52.560;13.508;2023-05-09T11:56:34;101289.03;;;22.38;40.58
13734;BME280;43298;52.560;13.508;2023-05-09T11:59:01;101288.59;;;22.22;41.60
13734;BME280;43298;52.560;13.508;2023-05-09T12:01:30;101273.75;;;22.21;41.67
13734;BME280;43298;52.560;13.508;2023-05-09T12:03:57;101272.97;;;22.52;41.68
13734;BME280;43298;52.560;13.508;2023-05-09T12:06:26;101271.09;;;22.63;42.46
13734;BME280;43298;52.560;13.508;2023-05-09T12:08:54;101271.25;;;22.62;41.18
13734;BME280;43298;52.560;13.508;2023-05-09T12:11:21;101268.53;;;22.10;41.38
13734;BME280;43298;52.560;13.508;2023-05-09T12:13:51;101254.50;;;22.72;41.45
13734;BME280;43298;52.560;13.508;2023-05-09T12:16:19;101263.88;;;22.86;41.96
13734;BME280;43298;52.560;13.508;2023-05-09T12:18:50;101235.72;;;22.66;41.96
13734;BME280;43298;52.560;13.508;2023-05-09T12:21:18;101234.50;;;23.41;40.24
13734;BME280;43298;52.560;13.508;2023-05-09T12:23:45;101255.59;;;22.90;40.07
13734;BME280;43298;52.560;13.508;2023-05-09T12:26:11;101239.31;;;22.33;40.27
13734;BME280;43298;52.560;13.508;2023-05-09T12:28:38;101233.19;;;22.44;39.99
13734;BME280;43298;52.560;13.508;2023-05-09T12:31:05;101230.06;;;22.50;39.84
13734;BME280;43298;52.560;13.508;2023-05-09T12:33:31;101231.13;;;22.47;40.97
13734;BME280;43298;52.560;13.508;2023-05-09T12:36:07;101225.63;;;22.50;40.69
13734;BME280;43298;52.560;13.508;2023-05-09T12:38:34;101237.50;;;22.86;40.28
13734;BME280;43298;52.560;13.508;2023-05-09T12:41:05;101207.28;;;22.49;40.04
13734;BME280;43298;52.560;13.508;2023-05-09T12:43:37;101206.88;;;22.01;39.90
13734;BME280;43298;52.560;13.508;2023-05-09T12:46:04;101215.91;;;22.40;40.60
13734;BME280;43298;52.560;13.508;2023-05-09T12:48:36;101205.44;;;22.81;40.47
13734;BME280;43298;52.560;13.508;2023-05-09T12:51:06;101207.38;;;22.27;40.59
13734;BME280;43298;52.560;13.508;2023-05-09T12:53:38;101203.94;;;22.88;40.89
13734;BME280;43298;52.560;13.508;2023-05-09T12:56:15;101209.97;;;22.79;38.44
13734;BME280;43298;52.560;13.508;2023-05-09T12:58:54;101200.28;;;23.30;38.52
13734;BME280;43298;52.560;13.508;2023-05-09T13:01:28;101193.38;;;23.97;39.60
13734;BME280;43298;52.560;13.508;2023-05-09T13:04:02;101186.56;;;24.14;38.82
13734;BME280;43298;52.560;13.508;2023-05-09T13:06:28;101190.81;;;24.43;40.94
13734;BME280;43298;52.560;13.508;2023-05-09T13:08:59;101179.44;;;24.33;38.93
13734;BME280;43298;52.560;13.508;2023-05-09T13:11:26;101181.94;;;24.06;39.38
13734;BME280;43298;52.560;13.508;2023-05-09T13:13:54;101184.25;;;22.92;39.29
13734;BME280;43298;52.560;13.508;2023-05-09T13:16:20;101178.47;;;23.07;39.38
13734;BME280;43298;52.560;13.508;2023-05-09T13:18:46;101175.16;;;23.45;38.90
13734;BME280;43298;52.560;13.508;2023-05-09T13:21:12;101164.59;;;23.36;38.63
13734;BME280;43298;52.560;13.508;2023-05-09T13:23:37;101171.91;;;22.72;38.09
13734;BME280;43298;52.560;13.508;2023-05-09T13:26:03;101185.22;;;22.91;38.02
13734;BME280;43298;52.560;13.508;2023-05-09T13:28:29;101169.69;;;23.27;38.03
13734;BME280;43298;52.560;13.508;2023-05-09T13:30:55;101163.50;;;22.57;37.50
13734;BME280;43298;52.560;13.508;2023-05-09T13:33:21;101161.28;;;23.13;37.78
13734;BME280;43298;52.560;13.508;2023-05-09T13:35:46;101152.06;;;23.38;37.62
13734;BME280;43298;52.560;13.508;2023-05-09T13:38:12;101147.63;;;23.28;38.45
13734;BME280;43298;52.560;13.508;2023-05-09T13:40:38;101139.13;;;23.25;37.71
13734;BME280;43298;52.560;13.508;2023-05-09T13:43:04;101142.84;;;23.91;39.39
13734;BME280;43298;52.560;13.508;2023-05-09T13:45:30;101134.44;;;23.48;37.53
13734;BME280;43298;52.560;13.508;2023-05-09T13:47:56;101131.19;;;22.85;37.53
13734;BME280;43298;52.560;13.508;2023-05-09T13:50:22;101140.88;;;22.85;36.28
13734;BME280;43298;52.560;13.508;2023-05-09T13:52:48;101120.38;;;23.28;38.03
13734;BME280;43298;52.560;13.508;2023-05-09T13:55:14;101120.72;;;23.63;37.29
13734;BME280;43298;52.560;13.508;2023-05-09T13:57:42;101106.06;;;23.30;37.60
13734;BME280;43298;52.560;13.508;2023-05-09T14:00:08;101106.41;;;22.67;38.37
13734;BME280;43298;52.560;13.508;2023-05-09T14:02:35;101103.13;;;23.24;38.38
13734;BME280;43298;52.560;13.508;2023-05-09T14:05:01;101093.84;;;23.29;38.81
13734;BME280;43298;52.560;13.508;2023-05-09T14:07:28;101091.19;;;22.90;36.86
13734;BME280;43298;52.560;13.508;2023-05-09T14:09:54;101087.63;;;23.40;36.74
13734;BME280;43298;52.560;13.508;2023-05-09T14:12:23;101088.88;;;23.46;36.62
13734;BME280;43298;52.560;13.508;2023-05-09T14:14:49;101079.97;;;23.47;37.11